createdAt,value
2018-12-11T00:01:27.481Z,2.90
2018-12-11T00:03:56.682Z,2.90
2018-12-11T00:06:26.349Z,2.80
2018-12-11T00:08:56.287Z,2.80
2018-12-11T00:11:26.335Z,2.70
2018-12-11T00:13:57.004Z,2.80
2018-12-11T00:16:26.367Z,2.80
2018-12-11T00:18:55.922Z,2.70
2018-12-11T00:21:25.478Z,2.70
2018-12-11T00:23:57.027Z,2.80
2018-12-11T00:26:29.846Z,2.70
2018-12-11T00:28:58.990Z,2.70
2018-12-11T00:31:27.917Z,2.60
2018-12-11T00:33:56.760Z,2.60
2018-12-11T00:36:26.357Z,2.50
2018-12-11T00:38:55.315Z,2.60
2018-12-11T00:41:24.903Z,2.60
2018-12-11T00:43:54.418Z,2.50
2018-12-11T00:46:23.481Z,2.50
2018-12-11T00:48:52.748Z,2.40
2018-12-11T00:51:21.931Z,2.60
2018-12-11T00:53:51.442Z,2.60
2018-12-11T00:56:20.080Z,2.70
2018-12-11T00:58:49.313Z,2.60
2018-12-11T01:01:18.376Z,2.50
2018-12-11T01:03:47.078Z,2.60
2018-12-11T01:06:15.581Z,2.50
2018-12-11T01:25:22.816Z,2.50
2018-12-11T01:27:51.636Z,2.60
2018-12-11T01:30:20.217Z,2.60
2018-12-11T01:32:48.836Z,2.60
2018-12-11T01:35:17.469Z,2.60
2018-12-11T01:37:46.033Z,2.60
2018-12-11T01:40:14.802Z,2.60
2018-12-11T01:42:43.716Z,2.70
2018-12-11T01:45:13.739Z,2.70
2018-12-11T01:47:42.865Z,2.60
2018-12-11T01:50:11.724Z,2.50
2018-12-11T01:52:40.680Z,2.60
2018-12-11T01:55:09.470Z,2.70
2018-12-11T01:57:37.943Z,2.80
2018-12-11T02:00:08.814Z,2.90
2018-12-11T02:02:37.768Z,2.90
2018-12-11T02:05:07.287Z,2.90
2018-12-11T02:07:36.212Z,3.00
2018-12-11T02:10:05.024Z,3.00
2018-12-11T02:12:33.659Z,2.90
2018-12-11T02:15:02.308Z,2.90
2018-12-11T02:17:31.138Z,3.00
2018-12-11T02:19:59.860Z,2.90
2018-12-11T02:22:28.613Z,2.80
2018-12-11T02:24:57.109Z,2.80
2018-12-11T02:27:25.838Z,2.80
2018-12-11T02:29:54.908Z,3.00
2018-12-11T02:32:23.790Z,2.90
2018-12-11T02:34:52.575Z,2.90
2018-12-11T02:37:21.130Z,3.00
2018-12-11T02:39:49.944Z,3.00
2018-12-11T02:42:18.508Z,3.00
2018-12-11T02:44:47.376Z,3.00
2018-12-11T02:53:02.708Z,2.90
2018-12-11T02:55:31.509Z,3.00
2018-12-11T02:58:00.137Z,3.00
2018-12-11T03:00:28.688Z,3.10
2018-12-11T03:02:57.637Z,3.00
2018-12-11T03:05:26.852Z,3.00
2018-12-11T03:07:56.055Z,3.00
2018-12-11T03:10:25.884Z,3.00
2018-12-11T03:12:55.848Z,3.00
2018-12-11T03:15:28.886Z,3.10
2018-12-11T03:17:58.015Z,3.10
2018-12-11T03:20:27.574Z,3.10
2018-12-11T03:22:56.331Z,3.10
2018-12-11T03:25:25.807Z,2.90
2018-12-11T03:27:55.360Z,2.80
2018-12-11T03:30:24.219Z,2.80
2018-12-11T03:32:52.932Z,2.80
2018-12-11T03:35:21.517Z,2.80
2018-12-11T03:37:50.059Z,2.90
2018-12-11T03:40:18.655Z,2.80
2018-12-11T03:42:47.471Z,2.90
2018-12-11T03:45:16.103Z,2.80
2018-12-11T03:47:44.919Z,2.80
2018-12-11T03:50:13.856Z,2.90
2018-12-11T03:52:43.317Z,2.80
2018-12-11T03:55:13.012Z,2.70
2018-12-11T03:57:41.621Z,2.70
2018-12-11T04:00:11.117Z,2.80
2018-12-11T04:02:40.003Z,2.80
2018-12-11T04:05:13.016Z,2.80
2018-12-11T04:07:42.057Z,2.90
2018-12-11T04:10:11.559Z,2.90
2018-12-11T04:12:40.428Z,3.00
2018-12-11T04:15:09.692Z,3.00
2018-12-11T04:17:39.032Z,2.80
2018-12-11T04:20:08.760Z,2.80
2018-12-11T04:22:37.816Z,2.80
2018-12-11T04:25:07.370Z,2.70
2018-12-11T04:27:36.036Z,2.70
2018-12-11T04:30:05.305Z,2.70
2018-12-11T04:32:34.032Z,2.70
2018-12-11T04:35:03.009Z,2.70
2018-12-11T04:37:31.794Z,2.60
2018-12-11T04:40:00.295Z,2.50
2018-12-11T04:42:29.076Z,2.40
2018-12-11T04:44:57.748Z,2.40
2018-12-11T04:47:26.551Z,2.30
2018-12-11T04:49:55.282Z,2.40
2018-12-11T04:52:24.357Z,2.40
2018-12-11T04:54:52.905Z,2.40
2018-12-11T04:57:21.580Z,2.50
2018-12-11T04:59:50.298Z,2.50
2018-12-11T05:02:19.069Z,2.40
2018-12-11T05:04:48.019Z,2.40
2018-12-11T05:07:16.627Z,2.20
2018-12-11T05:09:45.342Z,2.30
2018-12-11T05:12:14.449Z,2.20
2018-12-11T05:14:43.152Z,2.20
2018-12-11T05:17:11.989Z,2.20
2018-12-11T05:19:40.683Z,2.10
2018-12-11T05:22:09.973Z,2.20
2018-12-11T05:24:38.782Z,2.20
2018-12-11T05:27:07.574Z,2.30
2018-12-11T05:29:36.180Z,2.40
2018-12-11T05:32:05.205Z,2.40
2018-12-11T05:34:34.033Z,2.40
2018-12-11T05:37:02.771Z,2.50
2018-12-11T05:39:31.498Z,2.40
2018-12-11T05:42:00.311Z,2.50
2018-12-11T05:44:28.984Z,2.40
2018-12-11T05:46:57.732Z,2.40
2018-12-11T05:49:26.612Z,2.50
2018-12-11T05:51:55.352Z,2.50
2018-12-11T05:54:24.225Z,2.40
2018-12-11T05:56:52.834Z,2.50
2018-12-11T05:59:21.509Z,2.50
2018-12-11T06:01:50.399Z,2.40
2018-12-11T06:04:19.041Z,2.50
2018-12-11T06:06:47.813Z,2.40
2018-12-11T06:09:17.093Z,2.40
2018-12-11T06:11:46.229Z,2.20
2018-12-11T06:14:15.212Z,2.20
2018-12-11T06:16:44.221Z,2.30
2018-12-11T06:19:12.936Z,2.40
2018-12-11T06:21:41.816Z,2.50
2018-12-11T06:24:10.399Z,2.40
2018-12-11T06:26:39.821Z,2.40
2018-12-11T06:29:08.465Z,2.40
2018-12-11T06:31:37.283Z,2.50
2018-12-11T06:34:06.055Z,2.60
2018-12-11T06:36:34.902Z,2.60
2018-12-11T06:39:05.660Z,2.70
2018-12-11T06:41:34.505Z,2.60
2018-12-11T06:44:04.082Z,2.70
2018-12-11T06:46:32.892Z,2.70
2018-12-11T06:55:02.682Z,2.70
2018-12-11T06:57:31.661Z,2.80
2018-12-11T07:00:00.326Z,2.80
2018-12-11T07:02:29.280Z,2.80
2018-12-11T07:04:58.173Z,2.80
2018-12-11T07:07:26.992Z,2.80
2018-12-11T07:09:56.073Z,2.80
2018-12-11T07:12:26.910Z,2.80
2018-12-11T07:14:56.749Z,2.80
2018-12-11T07:17:25.597Z,2.80
2018-12-11T07:19:54.990Z,2.90
2018-12-11T07:27:10.492Z,2.80
2018-12-11T07:29:39.161Z,2.90
2018-12-11T07:32:08.033Z,2.90
2018-12-11T07:34:36.785Z,2.80
2018-12-11T07:37:05.702Z,2.80
2018-12-11T07:39:34.925Z,2.70
2018-12-11T07:42:04.106Z,2.70
2018-12-11T07:44:32.897Z,2.70
2018-12-11T07:47:01.800Z,2.70
2018-12-11T07:49:30.769Z,2.70
2018-12-11T07:51:59.876Z,2.70
2018-12-11T07:54:28.736Z,2.80
2018-12-11T07:56:57.414Z,2.70
2018-12-11T07:59:26.685Z,2.90
2018-12-11T08:01:55.481Z,2.90
2018-12-11T08:04:24.334Z,3.00
2018-12-11T08:06:53.012Z,3.10
2018-12-11T08:09:22.024Z,3.10
2018-12-11T08:11:50.992Z,3.10
2018-12-11T08:14:19.851Z,3.10
2018-12-11T08:16:48.667Z,3.00
2018-12-11T08:19:17.523Z,3.10
2018-12-11T08:21:46.266Z,3.20
2018-12-11T08:24:15.196Z,3.20
2018-12-11T08:26:44.569Z,3.20
2018-12-11T08:29:13.543Z,3.10
2018-12-11T08:31:42.833Z,3.30
2018-12-11T08:34:11.911Z,3.30
2018-12-11T08:36:40.555Z,3.20
2018-12-11T08:39:09.733Z,3.10
2018-12-11T08:41:39.386Z,3.10
2018-12-11T08:44:08.984Z,3.20
2018-12-11T08:46:38.172Z,3.30
2018-12-11T08:49:07.295Z,3.30
2018-12-11T08:51:36.320Z,3.40
2018-12-11T08:54:05.765Z,3.40
2018-12-11T08:56:34.918Z,3.30
2018-12-11T08:59:06.693Z,3.20
2018-12-11T09:01:34.551Z,3.20
2018-12-11T09:04:03.373Z,3.20
2018-12-11T09:06:32.614Z,3.10
2018-12-11T09:09:01.519Z,3.10
2018-12-11T09:11:30.495Z,3.00
2018-12-11T09:13:59.311Z,3.10
2018-12-11T09:16:28.176Z,3.00
2018-12-11T09:18:57.000Z,3.10
2018-12-11T09:21:25.880Z,3.30
2018-12-11T09:23:54.765Z,3.40
2018-12-11T09:26:23.604Z,3.40
2018-12-11T09:28:52.614Z,3.50
2018-12-11T09:31:21.555Z,3.60
2018-12-11T09:33:50.973Z,3.60
2018-12-11T09:36:19.813Z,3.60
2018-12-11T09:38:48.606Z,3.70
2018-12-11T09:41:17.555Z,3.70
2018-12-11T09:43:46.118Z,3.60
2018-12-11T09:46:15.092Z,3.70
2018-12-11T09:51:37.015Z,3.70
2018-12-11T09:54:05.921Z,3.70
2018-12-11T09:56:34.716Z,3.80
2018-12-11T09:59:03.532Z,3.80
2018-12-11T10:01:32.306Z,3.80
2018-12-11T10:04:00.865Z,3.70
2018-12-11T10:06:29.508Z,3.70
2018-12-11T10:09:04.825Z,3.70
2018-12-11T10:11:33.689Z,3.80
2018-12-11T10:14:04.724Z,3.80
2018-12-11T10:16:33.553Z,3.70
2018-12-11T10:19:02.420Z,3.70
2018-12-11T10:21:31.357Z,3.60
2018-12-11T10:24:00.371Z,3.60
2018-12-11T10:26:29.086Z,3.60
2018-12-11T10:28:57.992Z,3.70
2018-12-11T10:31:27.382Z,3.70
2018-12-11T10:33:56.101Z,3.70
2018-12-11T10:36:25.202Z,3.60
2018-12-11T10:38:57.058Z,3.70
2018-12-11T10:41:26.795Z,3.70
2018-12-11T10:43:55.960Z,3.70
2018-12-11T10:46:25.985Z,3.70
2018-12-11T10:48:56.370Z,3.80
2018-12-11T10:51:25.375Z,3.70
2018-12-11T10:53:54.060Z,3.70
2018-12-11T10:56:22.825Z,3.80
2018-12-11T10:58:51.838Z,3.90
2018-12-11T11:01:25.330Z,3.90
2018-12-11T11:03:54.395Z,4.00
2018-12-11T11:06:24.444Z,4.10
2018-12-11T11:08:53.895Z,4.20
2018-12-11T11:11:23.166Z,4.30
2018-12-11T11:13:52.231Z,4.40
2018-12-11T11:16:20.997Z,4.50
2018-12-11T11:18:49.706Z,4.50
2018-12-11T11:21:18.652Z,4.40
2018-12-11T11:23:48.940Z,4.40
2018-12-11T11:26:17.527Z,4.30
2018-12-11T11:28:46.252Z,4.10
2018-12-11T11:31:14.944Z,4.10
2018-12-11T11:33:43.754Z,4.10
2018-12-11T11:36:12.616Z,4.00
2018-12-11T11:38:41.466Z,4.00
2018-12-11T11:41:10.263Z,4.00
2018-12-11T11:43:39.425Z,3.90
2018-12-11T11:46:08.447Z,3.80
2018-12-11T11:48:37.310Z,3.90
2018-12-11T11:51:06.002Z,3.90
2018-12-11T11:53:34.885Z,3.90
2018-12-11T11:56:04.192Z,3.90
2018-12-11T11:58:33.445Z,3.90
2018-12-11T12:01:02.443Z,4.00
2018-12-11T12:03:31.550Z,3.90
2018-12-11T12:06:00.992Z,3.80
2018-12-11T12:08:30.225Z,3.80
2018-12-11T12:10:59.230Z,3.80
2018-12-11T12:13:29.118Z,4.00
2018-12-11T12:15:58.325Z,4.00
2018-12-11T12:18:27.325Z,4.00
2018-12-11T13:41:53.582Z,4.20
2018-12-11T13:44:23.522Z,4.20
2018-12-11T13:46:52.744Z,4.10
2018-12-11T13:49:21.953Z,4.20
2018-12-11T13:51:50.685Z,4.10
2018-12-11T13:54:19.786Z,4.10
2018-12-11T13:56:48.779Z,4.10
2018-12-11T13:59:22.613Z,4.00
2018-12-11T14:01:51.646Z,4.00
2018-12-11T14:21:40.487Z,4.10
2018-12-11T14:24:10.394Z,3.80
2018-12-11T14:26:39.338Z,3.90
2018-12-11T14:29:08.160Z,3.80
2018-12-11T14:31:37.195Z,3.80
2018-12-11T14:34:05.889Z,3.90
2018-12-11T14:36:35.649Z,3.80
2018-12-11T14:39:07.593Z,3.80
2018-12-11T14:41:36.591Z,3.80
2018-12-11T14:44:05.851Z,3.80
2018-12-11T14:46:34.742Z,3.70
2018-12-11T14:49:03.450Z,3.80
2018-12-11T14:51:32.357Z,3.80
2018-12-11T14:54:01.630Z,3.70
2018-12-11T14:56:30.686Z,3.70
2018-12-11T14:58:59.765Z,3.70
2018-12-11T15:01:28.754Z,3.70
2018-12-11T15:03:57.608Z,3.60
2018-12-11T15:06:26.377Z,3.50
2018-12-11T15:08:59.434Z,3.50
2018-12-11T15:11:28.598Z,3.60
2018-12-11T15:13:57.286Z,3.50
2018-12-11T15:16:26.493Z,3.50
2018-12-11T15:18:55.395Z,3.50
2018-12-11T15:21:24.720Z,3.40
2018-12-11T15:23:53.588Z,3.30
2018-12-11T15:26:22.450Z,3.40
2018-12-11T15:28:50.941Z,3.40
2018-12-11T15:31:19.700Z,3.40
2018-12-11T15:33:48.437Z,3.40
2018-12-11T15:36:17.165Z,3.30
2018-12-11T15:38:46.172Z,3.40
2018-12-11T15:41:14.808Z,3.30
2018-12-11T15:43:43.863Z,3.30
2018-12-11T15:46:12.871Z,3.40
2018-12-11T15:48:41.658Z,3.30
2018-12-11T15:51:10.455Z,3.20
2018-12-11T15:53:39.253Z,3.20
2018-12-11T15:56:07.926Z,3.20
2018-12-11T15:58:36.696Z,3.20
2018-12-11T16:01:05.599Z,3.20
2018-12-11T16:03:35.362Z,3.20
2018-12-11T16:06:04.081Z,3.20
2018-12-11T16:08:32.795Z,3.10
2018-12-11T16:11:01.522Z,3.10
2018-12-11T16:13:30.320Z,3.20
2018-12-11T16:15:59.015Z,3.10
2018-12-11T16:18:27.637Z,3.10
2018-12-11T16:20:56.329Z,3.10
2018-12-11T16:23:25.145Z,3.10
2018-12-11T16:25:54.001Z,3.10
2018-12-11T16:28:22.634Z,3.00
2018-12-11T16:30:51.281Z,3.00
2018-12-11T16:33:19.977Z,3.00
2018-12-11T16:35:48.867Z,2.90
2018-12-11T16:38:17.640Z,3.00
2018-12-11T16:40:46.561Z,2.90
2018-12-11T16:43:15.459Z,2.90
2018-12-11T16:45:44.121Z,3.00
2018-12-11T16:48:12.795Z,3.00
2018-12-11T16:50:41.679Z,3.00
2018-12-11T16:53:10.383Z,3.00
2018-12-11T16:55:39.272Z,3.00
2018-12-11T16:58:08.615Z,3.00
2018-12-11T17:00:37.766Z,3.00
2018-12-11T17:03:06.510Z,3.00
2018-12-11T17:05:35.249Z,3.00
2018-12-11T17:08:04.331Z,2.90
2018-12-11T17:10:32.994Z,2.90
2018-12-11T17:13:01.873Z,2.90
2018-12-11T17:15:30.949Z,2.90
2018-12-11T17:17:59.588Z,2.90
2018-12-11T17:20:28.487Z,2.80
2018-12-11T17:22:57.130Z,2.90
2018-12-11T17:25:26.076Z,2.90
2018-12-11T17:27:54.943Z,2.80
2018-12-11T17:30:23.632Z,2.90
2018-12-11T17:32:52.262Z,2.90
2018-12-11T17:35:21.097Z,2.90
2018-12-11T17:37:49.834Z,2.90
2018-12-11T17:40:18.381Z,2.90
2018-12-11T17:42:46.962Z,2.80
2018-12-11T17:45:15.533Z,2.80
2018-12-11T17:47:44.484Z,2.80
2018-12-11T17:50:13.550Z,2.80
2018-12-11T17:52:42.099Z,2.70
2018-12-11T17:55:10.789Z,2.80
2018-12-11T17:57:39.482Z,2.90
2018-12-11T18:00:09.512Z,2.80
2018-12-11T18:02:39.508Z,2.70
2018-12-11T18:05:08.865Z,2.80
2018-12-11T18:07:37.407Z,2.80
2018-12-11T18:10:07.562Z,2.80
2018-12-11T18:12:35.996Z,2.80
2018-12-11T18:15:05.172Z,2.70
2018-12-11T18:17:33.773Z,2.80
2018-12-11T18:20:02.575Z,2.80
2018-12-11T18:22:31.268Z,2.80
2018-12-11T18:25:00.239Z,2.90
2018-12-11T18:27:29.473Z,2.80
2018-12-11T18:29:58.443Z,2.90
2018-12-11T18:32:27.286Z,2.90
2018-12-11T18:34:56.236Z,2.90
2018-12-11T18:37:25.113Z,2.90
2018-12-11T18:39:54.318Z,2.90
2018-12-11T18:42:23.571Z,2.80
2018-12-11T18:44:52.116Z,2.80
2018-12-11T18:47:20.696Z,2.80
2018-12-11T18:49:49.456Z,2.80
2018-12-11T18:52:18.123Z,2.80
2018-12-11T18:54:46.889Z,2.90
2018-12-11T18:57:16.725Z,2.80
2018-12-11T19:02:26.190Z,2.90
2018-12-11T19:05:06.700Z,3.00
2018-12-11T19:11:45.765Z,2.90
2018-12-11T19:14:14.528Z,2.80
2018-12-11T19:16:43.593Z,2.80
2018-12-11T19:19:12.300Z,2.70
2018-12-11T19:21:41.100Z,2.80
2018-12-11T19:24:20.822Z,2.90
2018-12-11T19:26:49.631Z,2.90
2018-12-11T19:29:18.193Z,2.90
2018-12-11T19:31:46.974Z,2.90
2018-12-11T19:34:15.485Z,3.00
2018-12-11T19:36:45.123Z,3.00
2018-12-11T19:39:13.774Z,3.00
2018-12-11T19:41:42.781Z,3.10
2018-12-11T19:44:11.786Z,3.00
2018-12-11T19:46:40.682Z,3.00
2018-12-11T19:49:09.733Z,3.00
2018-12-11T19:51:39.904Z,2.90
2018-12-11T19:54:08.798Z,2.90
2018-12-11T19:56:37.584Z,2.80
2018-12-11T19:59:06.300Z,2.80
2018-12-11T20:01:35.851Z,2.70
2018-12-11T20:04:05.061Z,2.70
2018-12-11T20:06:35.772Z,2.70
2018-12-11T20:09:07.050Z,2.70
2018-12-11T20:11:35.981Z,2.70
2018-12-11T20:14:05.124Z,2.70
2018-12-11T20:16:33.954Z,2.80
2018-12-11T20:19:02.795Z,2.90
2018-12-11T20:21:32.014Z,2.90
2018-12-11T20:24:04.990Z,2.90
2018-12-11T20:26:39.013Z,3.00
2018-12-11T20:29:03.363Z,2.90
2018-12-11T20:31:32.205Z,2.90
2018-12-11T20:34:01.057Z,2.80
2018-12-11T20:36:30.042Z,2.80
2018-12-11T20:38:59.014Z,2.80
2018-12-11T20:41:27.827Z,2.80
2018-12-11T20:43:56.515Z,2.80
2018-12-11T20:46:25.585Z,2.80
2018-12-11T20:48:54.667Z,2.70
2018-12-11T20:51:23.741Z,2.70
2018-12-11T20:53:52.471Z,2.60
2018-12-11T20:56:20.942Z,2.70
2018-12-11T20:58:50.313Z,2.70
2018-12-11T21:04:05.568Z,2.60
2018-12-11T21:06:36.869Z,2.60
2018-12-11T21:09:10.310Z,2.60
2018-12-11T21:11:40.532Z,2.50
2018-12-11T21:14:09.495Z,2.40
2018-12-11T21:16:38.424Z,2.40
2018-12-11T21:19:08.156Z,2.50
2018-12-11T21:21:37.258Z,2.40
2018-12-11T21:24:06.180Z,2.40
2018-12-11T21:26:34.787Z,2.40
2018-12-11T21:29:03.778Z,2.40
2018-12-11T21:31:32.633Z,2.30
2018-12-11T21:34:01.848Z,2.40
2018-12-11T21:36:30.950Z,2.40
2018-12-11T21:38:59.738Z,2.30
2018-12-11T21:41:28.685Z,2.30
2018-12-11T21:43:57.792Z,2.20
2018-12-11T21:46:26.744Z,2.20
2018-12-11T21:48:55.911Z,2.20
2018-12-11T21:51:24.844Z,2.20
2018-12-11T21:53:53.843Z,2.20
2018-12-11T21:56:24.239Z,2.20
2018-12-11T21:58:52.865Z,2.20
2018-12-11T22:01:21.998Z,2.20
2018-12-11T22:03:50.778Z,2.10
2018-12-11T22:06:20.328Z,2.00
2018-12-11T22:08:49.063Z,2.00
2018-12-11T22:11:18.112Z,2.10
2018-12-11T22:13:46.817Z,2.10
2018-12-11T22:16:15.714Z,2.00
2018-12-11T22:18:44.277Z,2.00
2018-12-11T22:21:12.863Z,2.00
2018-12-11T22:23:41.552Z,2.00
2018-12-11T22:26:10.265Z,2.00
2018-12-11T22:28:38.730Z,1.90
2018-12-11T22:31:07.298Z,1.90
2018-12-11T22:33:35.760Z,1.80
2018-12-11T22:36:04.348Z,1.80
2018-12-11T22:38:33.140Z,1.90
2018-12-11T22:41:01.728Z,1.90
2018-12-11T22:43:30.630Z,1.90
2018-12-11T22:45:59.658Z,1.90
2018-12-11T22:48:28.466Z,1.90
2018-12-11T22:50:57.139Z,1.90
2018-12-11T22:53:25.959Z,1.80
2018-12-11T22:55:54.719Z,1.80
2018-12-11T22:58:23.711Z,1.80
2018-12-11T23:00:52.665Z,1.80
2018-12-11T23:03:21.090Z,1.70
2018-12-11T23:05:49.585Z,1.70
2018-12-11T23:08:18.340Z,1.80
2018-12-11T23:10:46.893Z,1.80
2018-12-11T23:13:15.644Z,1.80
2018-12-11T23:15:44.228Z,1.70
2018-12-11T23:18:12.914Z,1.70
2018-12-11T23:20:41.720Z,1.70
2018-12-11T23:23:11.021Z,1.60
2018-12-11T23:25:39.588Z,1.60
2018-12-11T23:28:08.238Z,1.50
2018-12-11T23:30:36.770Z,1.50
2018-12-11T23:33:05.796Z,1.50
2018-12-11T23:35:34.596Z,1.50
2018-12-11T23:38:03.475Z,1.60
2018-12-11T23:40:32.080Z,1.60
2018-12-11T23:43:00.830Z,1.60
2018-12-11T23:45:29.371Z,1.60
2018-12-11T23:47:57.888Z,1.50
2018-12-11T23:50:26.924Z,1.50
2018-12-11T23:52:55.793Z,1.50
2018-12-11T23:55:24.218Z,1.60
2018-12-11T23:57:53.049Z,1.60
